createdAt,value
2023-02-02T00:01:25.177Z,23.83
2023-02-02T00:03:53.036Z,29.08
2023-02-02T00:06:22.647Z,24.15
2023-02-02T00:08:50.071Z,23.30
2023-02-02T00:11:19.583Z,20.75
2023-02-02T00:13:47.388Z,21.85
2023-02-02T00:16:31.481Z,19.05
2023-02-02T00:19:01.890Z,18.17
2023-02-02T00:21:29.322Z,20.05
2023-02-02T00:23:56.776Z,21.88
2023-02-02T00:26:24.578Z,20.48
2023-02-02T00:28:52.905Z,25.58
2023-02-02T00:31:20.515Z,20.30
2023-02-02T00:33:49.383Z,22.33
2023-02-02T00:36:18.464Z,21.92
2023-02-02T00:41:14.120Z,18.75
2023-02-02T00:43:41.586Z,17.50
2023-02-02T00:46:19.288Z,17.55
2023-02-02T00:48:46.918Z,20.42
2023-02-02T00:51:14.279Z,25.23
2023-02-02T00:53:41.732Z,22.35
2023-02-02T00:56:09.125Z,21.85
2023-02-02T00:58:36.743Z,22.40
2023-02-02T01:01:04.263Z,21.05
2023-02-02T01:03:31.951Z,20.25
2023-02-02T01:05:59.316Z,19.92
2023-02-02T01:08:26.766Z,23.63
2023-02-02T01:10:54.223Z,24.02
2023-02-02T01:13:23.089Z,20.73
2023-02-02T01:15:55.299Z,17.30
2023-02-02T01:18:22.860Z,20.77
2023-02-02T01:21:17.455Z,20.00
2023-02-02T01:23:45.247Z,26.55
2023-02-02T01:26:13.664Z,16.98
2023-02-02T01:28:41.712Z,18.67
2023-02-02T01:31:14.916Z,24.20
2023-02-02T01:33:44.051Z,21.00
2023-02-02T01:36:18.298Z,19.85
2023-02-02T01:38:46.219Z,23.50
2023-02-02T01:41:22.473Z,20.75
2023-02-02T01:43:56.527Z,21.48
2023-02-02T01:46:44.076Z,19.85
2023-02-02T01:49:16.145Z,19.38
2023-02-02T01:51:53.448Z,19.45
2023-02-02T01:54:38.863Z,17.38
2023-02-02T01:57:12.776Z,20.90
2023-02-02T01:59:43.119Z,19.80
2023-02-02T02:02:11.357Z,21.27
2023-02-02T02:04:39.136Z,22.25
2023-02-02T02:07:08.145Z,26.80
2023-02-02T02:09:37.171Z,20.42
2023-02-02T02:12:13.815Z,18.48
2023-02-02T02:15:05.995Z,24.33
2023-02-02T02:17:49.105Z,37.70
2023-02-02T02:20:44.222Z,21.65
2023-02-02T02:24:21.012Z,18.17
2023-02-02T02:27:13.333Z,24.48
2023-02-02T02:30:16.158Z,24.58
2023-02-02T02:33:04.000Z,23.05
2023-02-02T02:36:03.081Z,20.05
2023-02-02T02:38:36.936Z,21.35
2023-02-02T02:41:12.280Z,18.73
2023-02-02T02:43:43.957Z,24.58
2023-02-02T02:46:13.088Z,21.17
2023-02-02T02:48:45.305Z,22.15
2023-02-02T02:51:44.032Z,21.17
2023-02-02T02:57:12.708Z,19.60
2023-02-02T03:00:02.199Z,19.25
2023-02-02T03:02:41.089Z,20.38
2023-02-02T03:05:44.515Z,20.52
2023-02-02T03:08:27.542Z,22.10
2023-02-02T03:10:58.132Z,20.30
2023-02-02T03:13:27.072Z,19.45
2023-02-02T03:15:54.731Z,22.35
2023-02-02T03:18:25.829Z,18.50
2023-02-02T03:20:53.327Z,24.50
2023-02-02T03:23:20.785Z,20.85
2023-02-02T03:25:48.723Z,20.23
2023-02-02T03:28:17.327Z,19.08
2023-02-02T03:30:46.626Z,20.38
2023-02-02T03:33:16.154Z,19.38
2023-02-02T03:35:43.731Z,23.58
2023-02-02T03:38:12.853Z,21.80
2023-02-02T03:40:41.353Z,20.65
2023-02-02T03:43:09.191Z,18.55
2023-02-02T03:45:37.574Z,19.77
2023-02-02T03:48:06.102Z,21.40
2023-02-02T03:53:01.028Z,19.80
2023-02-02T03:55:28.615Z,22.02
2023-02-02T03:57:56.039Z,23.23
2023-02-02T04:00:23.649Z,23.30
2023-02-02T04:02:51.080Z,22.40
2023-02-02T04:05:18.940Z,22.30
2023-02-02T04:07:46.238Z,24.17
2023-02-02T04:10:13.663Z,18.45
2023-02-02T04:12:41.744Z,22.80
2023-02-02T04:15:09.491Z,23.08
2023-02-02T04:17:36.861Z,20.60
2023-02-02T04:20:06.080Z,21.08
2023-02-02T04:22:34.208Z,21.45
2023-02-02T04:25:01.832Z,24.27
2023-02-02T04:27:32.854Z,23.95
2023-02-02T04:30:00.593Z,24.65
2023-02-02T04:32:27.955Z,20.98
2023-02-02T04:34:55.398Z,23.77
2023-02-02T04:37:22.867Z,26.38
2023-02-02T04:39:51.039Z,23.65
2023-02-02T04:42:18.465Z,19.88
2023-02-02T04:44:46.412Z,25.77
2023-02-02T04:47:13.798Z,24.55
2023-02-02T04:49:41.310Z,23.20
2023-02-02T04:52:08.740Z,20.67
2023-02-02T04:54:36.275Z,20.17
2023-02-02T04:57:03.730Z,24.10
2023-02-02T04:59:31.300Z,23.48
2023-02-02T05:02:02.786Z,19.67
2023-02-02T05:04:30.411Z,25.35
2023-02-02T05:06:58.567Z,29.95
2023-02-02T05:09:26.380Z,30.50
2023-02-02T05:11:53.828Z,25.70
2023-02-02T05:14:21.430Z,23.13
2023-02-02T05:16:50.263Z,36.28
2023-02-02T05:19:17.836Z,23.13
2023-02-02T05:21:45.799Z,24.35
2023-02-02T05:24:13.254Z,20.52
2023-02-02T05:26:40.719Z,31.98
2023-02-02T05:29:09.488Z,23.38
2023-02-02T05:34:05.227Z,24.45
2023-02-02T05:36:32.743Z,23.88
2023-02-02T05:39:00.787Z,26.42
2023-02-02T05:41:28.152Z,23.73
2023-02-02T05:43:55.562Z,17.33
2023-02-02T05:46:22.948Z,22.20
2023-02-02T05:48:50.497Z,20.48
2023-02-02T05:51:29.662Z,24.05
2023-02-02T05:53:58.430Z,26.90
2023-02-02T05:56:27.274Z,22.60
2023-02-02T05:58:54.752Z,22.60
2023-02-02T06:01:22.494Z,26.08
2023-02-02T06:03:50.198Z,28.38
2023-02-02T06:06:17.688Z,24.52
2023-02-02T06:08:45.186Z,23.50
2023-02-02T06:11:14.622Z,22.90
2023-02-02T06:13:45.829Z,21.55
2023-02-02T06:16:14.036Z,24.55
2023-02-02T06:18:41.571Z,25.38
2023-02-02T06:21:09.129Z,23.92
2023-02-02T06:23:36.774Z,20.33
2023-02-02T06:26:04.916Z,22.98
2023-02-02T06:28:32.468Z,26.02
2023-02-02T06:31:11.862Z,26.50
2023-02-02T06:33:40.725Z,24.25
2023-02-02T06:36:08.391Z,25.38
2023-02-02T06:38:35.983Z,24.05
2023-02-02T06:41:03.948Z,28.75
2023-02-02T06:43:31.574Z,23.02
2023-02-02T06:45:59.092Z,26.40
2023-02-02T06:48:27.289Z,23.60
2023-02-02T06:50:54.690Z,24.35
2023-02-02T06:53:25.098Z,25.10
2023-02-02T06:55:55.679Z,28.20
2023-02-02T06:58:23.431Z,26.58
2023-02-02T07:00:51.025Z,27.95
2023-02-02T07:03:21.555Z,30.58
2023-02-02T07:05:49.635Z,26.45
2023-02-02T07:08:17.429Z,28.42
2023-02-02T07:11:11.260Z,24.38
2023-02-02T07:13:33.967Z,32.60
2023-02-02T07:16:01.417Z,28.95
2023-02-02T07:18:28.904Z,26.08
2023-02-02T07:20:59.745Z,24.33
2023-02-02T07:23:31.327Z,28.55
2023-02-02T07:26:07.044Z,28.00
2023-02-02T07:28:35.114Z,23.58
2023-02-02T07:31:14.536Z,23.65
2023-02-02T07:33:43.739Z,21.38
2023-02-02T07:36:12.396Z,30.75
2023-02-02T07:38:39.881Z,32.33
2023-02-02T07:41:07.402Z,27.55
2023-02-02T07:43:34.903Z,26.50
2023-02-02T07:46:03.804Z,28.95
2023-02-02T07:48:31.548Z,25.27
2023-02-02T07:51:00.741Z,26.60
2023-02-02T07:53:28.939Z,25.48
2023-02-02T07:56:34.971Z,31.35
2023-02-02T07:59:02.581Z,27.92
2023-02-02T08:01:30.297Z,33.90
2023-02-02T08:04:00.813Z,24.98
2023-02-02T08:06:34.683Z,26.92
2023-02-02T08:09:03.779Z,29.33
2023-02-02T08:11:31.651Z,24.63
2023-02-02T08:14:01.623Z,24.20
2023-02-02T08:16:30.910Z,28.48
2023-02-02T08:18:58.493Z,27.55
2023-02-02T08:21:26.101Z,27.27
2023-02-02T08:23:54.064Z,24.05
2023-02-02T08:26:24.832Z,30.13
2023-02-02T08:28:55.212Z,28.90
2023-02-02T08:31:27.204Z,30.30
2023-02-02T08:33:55.279Z,28.83
2023-02-02T08:36:24.553Z,26.35
2023-02-02T08:38:52.893Z,27.67
2023-02-02T08:41:23.095Z,25.13
2023-02-02T08:43:51.266Z,29.70
2023-02-02T08:46:20.890Z,30.73
2023-02-02T08:48:49.071Z,33.25
2023-02-02T08:51:19.032Z,24.45
2023-02-02T08:53:47.051Z,36.63
2023-02-02T08:56:20.623Z,28.33
2023-02-02T08:58:53.837Z,29.17
2023-02-02T09:01:27.033Z,26.65
2023-02-02T09:03:59.693Z,23.02
2023-02-02T09:06:32.925Z,27.83
2023-02-02T09:09:01.359Z,25.77
2023-02-02T09:11:29.248Z,30.85
2023-02-02T09:13:59.209Z,27.15
2023-02-02T09:16:27.547Z,31.38
2023-02-02T09:18:56.567Z,27.35
2023-02-02T09:21:24.978Z,27.27
2023-02-02T09:26:27.174Z,27.02
2023-02-02T09:29:02.705Z,23.10
2023-02-02T09:31:33.953Z,23.73
2023-02-02T09:34:03.442Z,29.08
2023-02-02T09:36:32.016Z,30.60
2023-02-02T09:38:59.414Z,25.02
2023-02-02T09:41:39.060Z,23.90
2023-02-02T09:44:25.818Z,24.15
2023-02-02T09:47:19.798Z,29.77
2023-02-02T09:49:59.450Z,26.40
2023-02-02T09:52:44.125Z,25.45
2023-02-02T09:55:38.211Z,22.98
2023-02-02T09:58:26.802Z,28.40
2023-02-02T10:01:14.874Z,29.60
2023-02-02T10:04:02.435Z,28.08
2023-02-02T10:06:40.463Z,26.90
2023-02-02T10:09:40.144Z,29.17
2023-02-02T10:12:34.279Z,29.00
2023-02-02T10:18:07.089Z,25.55
2023-02-02T10:20:53.094Z,34.75
2023-02-02T10:23:42.013Z,26.48
2023-02-02T10:26:19.960Z,22.23
2023-02-02T10:29:14.967Z,25.52
2023-02-02T10:31:47.365Z,23.50
2023-02-02T10:34:33.237Z,26.48
2023-02-02T10:37:06.319Z,22.92
2023-02-02T10:39:52.244Z,24.00
2023-02-02T10:42:34.343Z,25.80
2023-02-02T10:45:14.780Z,24.15
2023-02-02T10:47:42.852Z,23.60
2023-02-02T10:50:13.307Z,27.95
2023-02-02T10:53:02.018Z,29.00
2023-02-02T10:55:39.295Z,26.95
2023-02-02T10:58:12.876Z,29.73
2023-02-02T11:01:04.979Z,22.60
2023-02-02T11:03:33.479Z,22.75
2023-02-02T11:08:57.106Z,28.33
2023-02-02T11:11:35.141Z,24.67
2023-02-02T11:14:14.109Z,30.70
2023-02-02T11:16:44.531Z,24.17
2023-02-02T11:19:18.143Z,32.15
2023-02-02T11:21:48.658Z,42.63
2023-02-02T11:24:30.295Z,30.67
2023-02-02T11:27:23.823Z,28.08
2023-02-02T11:29:57.242Z,29.05
2023-02-02T11:32:34.307Z,24.83
2023-02-02T11:35:04.943Z,25.35
2023-02-02T11:37:36.296Z,28.60
2023-02-02T11:40:28.921Z,25.67
2023-02-02T11:42:59.555Z,28.40
2023-02-02T11:45:41.538Z,26.50
2023-02-02T11:48:20.647Z,26.77
2023-02-02T11:50:54.194Z,28.58
2023-02-02T11:53:31.720Z,32.45
2023-02-02T11:56:04.810Z,26.85
2023-02-02T11:58:49.659Z,31.05
2023-02-02T12:01:34.269Z,30.17
2023-02-02T12:04:25.805Z,28.05
2023-02-02T12:06:53.444Z,35.63
2023-02-02T12:09:25.853Z,29.45
2023-02-02T12:12:02.546Z,27.50
2023-02-02T12:14:59.842Z,30.45
2023-02-02T12:17:45.415Z,26.88
2023-02-02T12:20:47.043Z,23.80
2023-02-02T12:23:37.510Z,33.70
2023-02-02T12:26:29.092Z,27.85
2023-02-02T12:29:24.560Z,26.30
2023-02-02T12:32:01.334Z,26.13
2023-02-02T12:34:48.239Z,23.80
2023-02-02T12:37:45.900Z,23.05
2023-02-02T12:40:56.040Z,26.13
2023-02-02T12:43:42.523Z,32.17
2023-02-02T12:46:29.014Z,36.95
2023-02-02T12:49:19.635Z,30.92
2023-02-02T12:51:56.198Z,32.55
2023-02-02T12:54:34.998Z,27.15
2023-02-02T12:57:45.709Z,34.13
2023-02-02T13:00:35.554Z,34.08
2023-02-02T13:03:44.492Z,35.20
2023-02-02T13:06:30.014Z,28.73
2023-02-02T13:09:27.202Z,27.27
2023-02-02T13:12:01.381Z,27.15
2023-02-02T13:14:51.890Z,31.83
2023-02-02T13:17:27.643Z,31.33
2023-02-02T13:20:04.723Z,27.02
2023-02-02T13:22:42.465Z,33.78
2023-02-02T13:25:30.849Z,27.10
2023-02-02T13:28:02.498Z,30.15
2023-02-02T13:30:38.544Z,36.85
2023-02-02T13:33:16.228Z,34.92
2023-02-02T13:35:53.925Z,34.25
2023-02-02T13:38:26.864Z,34.25
2023-02-02T13:40:56.886Z,34.90
2023-02-02T13:44:16.060Z,40.22
2023-02-02T13:46:54.507Z,28.05
2023-02-02T13:49:40.988Z,32.00
2023-02-02T13:52:42.059Z,24.45
2023-02-02T13:55:30.916Z,27.55
2023-02-02T13:58:18.832Z,25.17
2023-02-02T14:00:53.386Z,26.90
2023-02-02T14:03:29.240Z,24.92
2023-02-02T14:06:10.318Z,29.30
2023-02-02T14:08:43.675Z,24.65
2023-02-02T14:11:28.272Z,27.33
2023-02-02T14:14:19.615Z,32.72
2023-02-02T14:16:50.158Z,36.15
2023-02-02T14:19:35.719Z,28.15
2023-02-02T14:22:10.728Z,29.25
2023-02-02T14:27:08.951Z,26.70
2023-02-02T14:29:39.682Z,31.48
2023-02-02T14:32:07.237Z,29.00
2023-02-02T14:34:45.179Z,31.05
2023-02-02T14:37:24.807Z,27.45
2023-02-02T14:40:07.553Z,26.70
2023-02-02T14:43:41.616Z,27.00
2023-02-02T14:46:14.847Z,23.63
2023-02-02T14:48:44.520Z,24.00
2023-02-02T14:51:33.378Z,22.13
2023-02-02T14:54:05.299Z,30.40
2023-02-02T14:56:38.727Z,26.20
2023-02-02T14:59:08.020Z,26.02
2023-02-02T15:01:39.111Z,24.70
2023-02-02T15:04:22.043Z,31.13
2023-02-02T15:06:53.099Z,23.48
2023-02-02T15:09:20.563Z,24.23
2023-02-02T15:12:03.173Z,20.63
2023-02-02T15:15:04.498Z,20.23
2023-02-02T15:17:48.983Z,23.55
2023-02-02T15:20:37.273Z,22.40
2023-02-02T15:23:17.687Z,24.02
2023-02-02T15:25:54.400Z,20.55
2023-02-02T15:28:52.662Z,27.35
2023-02-02T15:31:29.085Z,21.52
2023-02-02T15:34:01.561Z,23.98
2023-02-02T15:36:35.967Z,26.15
2023-02-02T15:39:29.029Z,18.00
2023-02-02T15:42:17.512Z,20.13
2023-02-02T15:44:46.023Z,30.10
2023-02-02T15:47:18.628Z,22.63
2023-02-02T15:49:46.556Z,26.02
2023-02-02T15:52:17.461Z,26.20
2023-02-02T15:54:52.074Z,20.90
2023-02-02T15:57:38.507Z,22.58
2023-02-02T16:00:26.453Z,25.95
2023-02-02T16:03:05.072Z,26.73
2023-02-02T16:05:32.432Z,17.27
2023-02-02T16:08:05.953Z,19.63
2023-02-02T16:10:35.752Z,23.13
2023-02-02T16:13:04.002Z,21.30
2023-02-02T16:15:33.053Z,21.25
2023-02-02T16:18:02.709Z,27.95
2023-02-02T16:20:33.627Z,19.38
2023-02-02T16:23:06.298Z,23.98
2023-02-02T16:25:44.985Z,22.63
2023-02-02T16:28:18.848Z,19.25
2023-02-02T16:30:46.562Z,22.50
2023-02-02T16:33:33.859Z,21.40
2023-02-02T16:36:04.352Z,20.80
2023-02-02T16:38:37.592Z,27.38
2023-02-02T16:41:13.817Z,21.48
2023-02-02T16:43:42.858Z,21.98
2023-02-02T16:46:15.551Z,18.98
2023-02-02T16:48:57.443Z,19.33
2023-02-02T16:51:30.781Z,18.63
2023-02-02T16:54:14.509Z,23.30
2023-02-02T16:56:45.419Z,21.52
2023-02-02T16:59:15.743Z,21.48
2023-02-02T17:01:51.176Z,18.52
2023-02-02T17:04:34.415Z,19.90
2023-02-02T17:07:13.592Z,18.90
2023-02-02T17:09:43.664Z,24.77
2023-02-02T17:12:32.182Z,25.25
2023-02-02T17:15:34.477Z,23.33
2023-02-02T17:18:04.380Z,20.13
2023-02-02T17:20:34.788Z,23.27
2023-02-02T17:23:07.111Z,19.05
2023-02-02T17:25:42.881Z,24.10
2023-02-02T17:28:12.775Z,19.23
2023-02-02T17:30:42.158Z,23.55
2023-02-02T17:33:17.582Z,27.05
2023-02-02T17:35:56.084Z,30.83
2023-02-02T17:38:25.207Z,20.30
2023-02-02T17:40:53.658Z,22.23
2023-02-02T17:43:21.699Z,19.50
2023-02-02T17:45:49.583Z,23.50
2023-02-02T17:48:17.404Z,20.90
2023-02-02T17:50:45.602Z,26.30
2023-02-02T17:53:18.772Z,22.35
2023-02-02T17:55:47.773Z,23.33
2023-02-02T17:58:17.778Z,24.77
2023-02-02T18:00:53.465Z,27.02
2023-02-02T18:03:27.988Z,24.13
2023-02-02T18:05:57.869Z,26.75
2023-02-02T18:08:25.486Z,27.35
2023-02-02T18:10:52.850Z,17.48
2023-02-02T18:13:22.487Z,20.80
2023-02-02T18:15:51.030Z,20.10
2023-02-02T18:20:48.316Z,25.75
2023-02-02T18:23:17.453Z,20.65
2023-02-02T18:25:44.991Z,23.17
2023-02-02T18:28:16.588Z,21.40
2023-02-02T18:30:45.043Z,21.40
2023-02-02T18:33:13.885Z,24.88
2023-02-02T18:35:42.801Z,20.33
2023-02-02T18:38:10.743Z,26.73
2023-02-02T18:40:38.657Z,22.52
2023-02-02T18:43:06.504Z,17.63
2023-02-02T18:45:33.974Z,23.60
2023-02-02T18:48:01.358Z,22.33
2023-02-02T18:50:28.953Z,25.70
2023-02-02T18:52:57.024Z,20.25
2023-02-02T18:55:24.812Z,27.55
2023-02-02T18:57:52.955Z,28.55
2023-02-02T19:00:22.279Z,24.60
2023-02-02T19:02:49.680Z,25.98
2023-02-02T19:05:36.026Z,22.63
2023-02-02T19:08:04.277Z,21.77
2023-02-02T19:10:31.865Z,23.33
2023-02-02T19:13:14.471Z,25.35
2023-02-02T19:15:42.654Z,22.02
2023-02-02T19:18:24.717Z,25.40
2023-02-02T19:20:53.295Z,21.45
2023-02-02T19:23:23.863Z,24.95
2023-02-02T19:25:56.822Z,27.67
2023-02-02T19:28:30.030Z,24.20
2023-02-02T19:31:00.454Z,25.00
2023-02-02T19:33:43.858Z,30.85
2023-02-02T19:36:20.070Z,23.80
2023-02-02T19:38:48.956Z,25.48
2023-02-02T19:41:25.424Z,25.10
2023-02-02T19:43:58.794Z,23.58
2023-02-02T19:46:28.265Z,24.90
2023-02-02T19:49:13.699Z,21.55
2023-02-02T19:51:45.823Z,27.23
2023-02-02T19:54:24.779Z,23.00
2023-02-02T19:57:10.905Z,26.60
2023-02-02T19:59:38.442Z,22.45
2023-02-02T20:02:42.061Z,31.52
2023-02-02T20:05:12.948Z,25.65
2023-02-02T20:07:40.455Z,26.42
2023-02-02T20:10:19.396Z,26.63
2023-02-02T20:12:47.023Z,25.30
2023-02-02T20:15:35.045Z,24.15
2023-02-02T20:18:11.177Z,22.67
2023-02-02T20:20:41.073Z,24.92
2023-02-02T20:23:43.067Z,23.08
2023-02-02T20:26:21.000Z,27.42
2023-02-02T20:28:49.444Z,28.83
2023-02-02T20:33:57.968Z,27.80
2023-02-02T20:36:39.667Z,27.45
2023-02-02T20:39:16.286Z,30.38
2023-02-02T20:41:44.161Z,31.35
2023-02-02T20:44:12.214Z,25.92
2023-02-02T20:46:39.846Z,25.58
2023-02-02T20:49:07.463Z,33.28
2023-02-02T20:51:35.139Z,36.92
2023-02-02T20:54:02.701Z,28.35
2023-02-02T20:56:30.181Z,31.02
2023-02-02T20:58:57.566Z,30.60
2023-02-02T21:01:26.454Z,33.45
2023-02-02T21:03:54.003Z,34.15
2023-02-02T21:06:21.479Z,27.48
2023-02-02T21:08:52.663Z,31.05
2023-02-02T21:11:20.455Z,33.20
2023-02-02T21:13:48.668Z,31.77
2023-02-02T21:16:16.467Z,31.10
2023-02-02T21:18:47.405Z,30.45
2023-02-02T21:21:16.612Z,34.28
2023-02-02T21:23:48.834Z,39.78
2023-02-02T21:28:51.787Z,35.00
2023-02-02T21:31:19.706Z,34.03
2023-02-02T21:33:50.132Z,36.17
2023-02-02T21:36:21.085Z,33.28
2023-02-02T21:38:48.622Z,35.25
2023-02-02T21:41:16.630Z,36.97
2023-02-02T21:43:44.006Z,38.60
2023-02-02T21:46:29.590Z,33.17
2023-02-02T21:48:57.088Z,36.00
2023-02-02T21:51:29.136Z,35.08
2023-02-02T21:53:58.121Z,32.42
2023-02-02T21:56:36.576Z,36.30
2023-02-02T21:59:16.732Z,33.38
2023-02-02T22:01:45.255Z,38.65
2023-02-02T22:04:18.314Z,36.20
2023-02-02T22:06:48.273Z,36.75
2023-02-02T22:09:24.603Z,39.92
2023-02-02T22:11:56.921Z,41.08
2023-02-02T22:14:37.355Z,35.45
2023-02-02T22:17:25.813Z,38.85
2023-02-02T22:20:01.555Z,34.95
2023-02-02T22:22:35.722Z,40.40
2023-02-02T22:25:16.613Z,37.47
2023-02-02T22:27:51.480Z,39.92
2023-02-02T22:30:34.107Z,42.17
2023-02-02T22:33:01.695Z,39.95
2023-02-02T22:35:29.339Z,39.42
2023-02-02T22:37:56.802Z,40.20
2023-02-02T22:40:25.183Z,42.47
2023-02-02T22:42:55.520Z,40.72
2023-02-02T22:45:23.481Z,45.08
2023-02-02T22:47:51.544Z,39.08
2023-02-02T22:50:22.802Z,39.85
2023-02-02T22:52:50.686Z,36.00
2023-02-02T22:55:18.623Z,38.17
2023-02-02T22:57:46.278Z,34.42
2023-02-02T23:00:23.426Z,46.28
2023-02-02T23:02:51.426Z,43.83
2023-02-02T23:05:20.299Z,40.13
2023-02-02T23:07:49.208Z,35.88
2023-02-02T23:10:19.672Z,36.55
2023-02-02T23:12:48.442Z,41.20
2023-02-02T23:17:43.735Z,45.58
2023-02-02T23:20:14.581Z,40.85
2023-02-02T23:22:42.039Z,48.65
2023-02-02T23:25:10.773Z,46.53
2023-02-02T23:27:38.513Z,35.88
2023-02-02T23:30:07.805Z,30.60
2023-02-02T23:32:36.159Z,32.50
2023-02-02T23:35:04.056Z,30.00
2023-02-02T23:37:32.119Z,32.90
2023-02-02T23:39:59.560Z,30.70
2023-02-02T23:42:27.225Z,33.38
2023-02-02T23:44:54.518Z,28.45
2023-02-02T23:47:22.152Z,37.80
2023-02-02T23:49:49.480Z,33.97
2023-02-02T23:52:17.317Z,33.38
2023-02-02T23:54:45.213Z,30.40
2023-02-02T23:57:12.706Z,33.58
2023-02-02T23:59:40.082Z,41.08
